sensor_id;sensor_type;location;lat;lon;timestamp;temperature;humidity
74873;HTU21D;68776;44.762;37.698;2023-04-09T00:00:18;11.16;82.26
74873;HTU21D;68776;44.762;37.698;2023-04-09T00:01:19;11.13;82.38
74873;HTU21D;68776;44.762;37.698;2023-04-09T00:02:20;11.11;82.46
74873;HTU21D;68776;44.762;37.698;2023-04-09T00:03:21;11.12;82.58
74873;HTU21D;68776;44.762;37.698;2023-04-09T00:04:22;11.11;82.67
74873;HTU21D;68776;44.762;37.698;2023-04-09T00:05:23;11.11;82.76
74873;HTU21D;68776;44.762;37.698;2023-04-09T00:06:24;11.11;82.84
74873;HTU21D;68776;44.762;37.698;2023-04-09T00:07:25;11.10;82.89
74873;HTU21D;68776;44.762;37.698;2023-04-09T00:08:26;11.09;82.85
74873;HTU21D;68776;44.762;37.698;2023-04-09T00:09:27;11.08;82.84
74873;HTU21D;68776;44.762;37.698;2023-04-09T00:10:28;11.05;82.78
74873;HTU21D;68776;44.762;37.698;2023-04-09T00:11:29;11.04;82.71
74873;HTU21D;68776;44.762;37.698;2023-04-09T00:12:30;11.05;82.62
74873;HTU21D;68776;44.762;37.698;2023-04-09T00:13:31;11.05;82.62
74873;HTU21D;68776;44.762;37.698;2023-04-09T00:14:32;11.02;82.64
74873;HTU21D;68776;44.762;37.698;2023-04-09T00:15:33;10.99;82.68
74873;HTU21D;68776;44.762;37.698;2023-04-09T00:16:34;10.98;82.65
74873;HTU21D;68776;44.762;37.698;2023-04-09T00:17:35;10.95;82.58
74873;HTU21D;68776;44.762;37.698;2023-04-09T00:18:36;10.94;82.62
74873;HTU21D;68776;44.762;37.698;2023-04-09T00:19:37;10.93;82.62
74873;HTU21D;68776;44.762;37.698;2023-04-09T00:20:38;10.90;82.60
74873;HTU21D;68776;44.762;37.698;2023-04-09T00:21:39;10.90;82.58
74873;HTU21D;68776;44.762;37.698;2023-04-09T00:22:40;10.92;82.64
74873;HTU21D;68776;44.762;37.698;2023-04-09T00:23:42;10.93;82.65
74873;HTU21D;68776;44.762;37.698;2023-04-09T00:24:43;10.94;82.52
74873;HTU21D;68776;44.762;37.698;2023-04-09T00:25:44;10.94;82.45
74873;HTU21D;68776;44.762;37.698;2023-04-09T00:26:45;10.95;82.37
74873;HTU21D;68776;44.762;37.698;2023-04-09T00:27:46;10.94;82.28
74873;HTU21D;68776;44.762;37.698;2023-04-09T00:28:47;10.93;82.26
74873;HTU21D;68776;44.762;37.698;2023-04-09T00:29:48;10.92;82.28
74873;HTU21D;68776;44.762;37.698;2023-04-09T00:30:49;10.89;82.32
74873;HTU21D;68776;44.762;37.698;2023-04-09T00:31:50;10.90;82.35
74873;HTU21D;68776;44.762;37.698;2023-04-09T00:32:51;10.92;82.39
74873;HTU21D;68776;44.762;37.698;2023-04-09T00:33:52;10.90;82.31
74873;HTU21D;68776;44.762;37.698;2023-04-09T00:34:53;10.88;82.25
74873;HTU21D;68776;44.762;37.698;2023-04-09T00:35:54;10.87;82.33
74873;HTU21D;68776;44.762;37.698;2023-04-09T00:36:55;10.87;82.47
74873;HTU21D;68776;44.762;37.698;2023-04-09T00:37:56;10.87;82.54
74873;HTU21D;68776;44.762;37.698;2023-04-09T00:38:57;10.89;82.52
74873;HTU21D;68776;44.762;37.698;2023-04-09T00:39:58;10.92;82.45
74873;HTU21D;68776;44.762;37.698;2023-04-09T00:40:59;10.89;82.44
74873;HTU21D;68776;44.762;37.698;2023-04-09T00:42:01;10.88;82.47
74873;HTU21D;68776;44.762;37.698;2023-04-09T00:43:02;10.87;82.54
74873;HTU21D;68776;44.762;37.698;2023-04-09T00:44:03;10.87;82.58
74873;HTU21D;68776;44.762;37.698;2023-04-09T00:45:05;10.86;82.64
74873;HTU21D;68776;44.762;37.698;2023-04-09T00:46:06;10.85;82.56
74873;HTU21D;68776;44.762;37.698;2023-04-09T00:47:07;10.82;82.49
74873;HTU21D;68776;44.762;37.698;2023-04-09T00:48:08;10.80;82.50
74873;HTU21D;68776;44.762;37.698;2023-04-09T00:49:09;10.79;82.47
74873;HTU21D;68776;44.762;37.698;2023-04-09T00:50:10;10.75;82.50
74873;HTU21D;68776;44.762;37.698;2023-04-09T00:51:11;10.75;82.53
74873;HTU21D;68776;44.762;37.698;2023-04-09T00:52:12;10.75;82.61
74873;HTU21D;68776;44.762;37.698;2023-04-09T00:53:13;10.75;82.62
74873;HTU21D;68776;44.762;37.698;2023-04-09T00:54:15;10.75;82.56
74873;HTU21D;68776;44.762;37.698;2023-04-09T00:55:17;10.74;82.62
74873;HTU21D;68776;44.762;37.698;2023-04-09T00:56:21;10.72;82.56
74873;HTU21D;68776;44.762;37.698;2023-04-09T00:57:23;10.71;82.45
74873;HTU21D;68776;44.762;37.698;2023-04-09T00:58:24;10.69;82.39
74873;HTU21D;68776;44.762;37.698;2023-04-09T00:59:25;10.71;82.34
74873;HTU21D;68776;44.762;37.698;2023-04-09T01:00:26;10.70;82.23
74873;HTU21D;68776;44.762;37.698;2023-04-09T01:01:27;10.71;82.13
74873;HTU21D;68776;44.762;37.698;2023-04-09T01:02:28;10.71;82.09
74873;HTU21D;68776;44.762;37.698;2023-04-09T01:03:30;10.70;82.07
74873;HTU21D;68776;44.762;37.698;2023-04-09T01:04:31;10.70;82.09
74873;HTU21D;68776;44.762;37.698;2023-04-09T01:06:51;10.69;82.06
74873;HTU21D;68776;44.762;37.698;2023-04-09T01:10:45;10.65;82.05
74873;HTU21D;68776;44.762;37.698;2023-04-09T01:13:48;10.66;81.79
74873;HTU21D;68776;44.762;37.698;2023-04-09T01:15:17;10.64;81.65
74873;HTU21D;68776;44.762;37.698;2023-04-09T01:16:21;10.64;81.61
74873;HTU21D;68776;44.762;37.698;2023-04-09T01:17:32;10.64;81.46
74873;HTU21D;68776;44.762;37.698;2023-04-09T01:19:06;10.62;81.36
74873;HTU21D;68776;44.762;37.698;2023-04-09T01:20:13;10.63;81.20
74873;HTU21D;68776;44.762;37.698;2023-04-09T01:21:19;10.59;81.16
74873;HTU21D;68776;44.762;37.698;2023-04-09T01:24:30;10.54;81.09
74873;HTU21D;68776;44.762;37.698;2023-04-09T01:26:05;10.57;81.12
74873;HTU21D;68776;44.762;37.698;2023-04-09T01:27:16;10.57;81.11
74873;HTU21D;68776;44.762;37.698;2023-04-09T01:29:02;10.57;81.11
74873;HTU21D;68776;44.762;37.698;2023-04-09T01:29:56;10.56;80.96
74873;HTU21D;68776;44.762;37.698;2023-04-09T01:31:04;10.56;80.91
74873;HTU21D;68776;44.762;37.698;2023-04-09T01:32:06;10.58;80.90
74873;HTU21D;68776;44.762;37.698;2023-04-09T01:33:10;10.56;80.83
74873;HTU21D;68776;44.762;37.698;2023-04-09T01:34:12;10.55;80.73
74873;HTU21D;68776;44.762;37.698;2023-04-09T01:35:14;68.46;80.74
74873;HTU21D;68776;44.762;37.698;2023-04-09T01:36:15;10.53;80.72
74873;HTU21D;68776;44.762;37.698;2023-04-09T01:37:17;10.51;80.67
74873;HTU21D;68776;44.762;37.698;2023-04-09T01:38:19;10.53;80.64
74873;HTU21D;68776;44.762;37.698;2023-04-09T01:39:22;10.53;80.72
74873;HTU21D;68776;44.762;37.698;2023-04-09T01:40:23;10.51;80.80
74873;HTU21D;68776;44.762;37.698;2023-04-09T01:41:25;10.52;80.72
74873;HTU21D;68776;44.762;37.698;2023-04-09T01:42:27;10.50;80.62
74873;HTU21D;68776;44.762;37.698;2023-04-09T01:43:29;10.49;80.49
74873;HTU21D;68776;44.762;37.698;2023-04-09T01:44:31;10.45;80.53
74873;HTU21D;68776;44.762;37.698;2023-04-09T01:45:33;10.44;80.59
74873;HTU21D;68776;44.762;37.698;2023-04-09T01:46:35;10.42;80.62
74873;HTU21D;68776;44.762;37.698;2023-04-09T01:47:37;10.42;80.69
74873;HTU21D;68776;44.762;37.698;2023-04-09T01:48:39;10.42;80.65
74873;HTU21D;68776;44.762;37.698;2023-04-09T01:49:40;10.40;80.53
74873;HTU21D;68776;44.762;37.698;2023-04-09T01:50:41;10.39;80.49
74873;HTU21D;68776;44.762;37.698;2023-04-09T01:51:43;10.38;80.50
74873;HTU21D;68776;44.762;37.698;2023-04-09T01:52:44;10.37;80.49
74873;HTU21D;68776;44.762;37.698;2023-04-09T01:53:45;10.34;80.40
74873;HTU21D;68776;44.762;37.698;2023-04-09T01:54:46;10.33;80.36
74873;HTU21D;68776;44.762;37.698;2023-04-09T01:55:47;10.33;80.29
74873;HTU21D;68776;44.762;37.698;2023-04-09T01:56:48;10.31;80.24
74873;HTU21D;68776;44.762;37.698;2023-04-09T01:57:49;10.34;80.26
74873;HTU21D;68776;44.762;37.698;2023-04-09T01:58:50;10.34;80.11
74873;HTU21D;68776;44.762;37.698;2023-04-09T01:59:53;10.31;80.07
74873;HTU21D;68776;44.762;37.698;2023-04-09T02:00:59;10.31;80.06
74873;HTU21D;68776;44.762;37.698;2023-04-09T02:02:09;10.33;80.08
74873;HTU21D;68776;44.762;37.698;2023-04-09T02:03:25;10.33;79.98
74873;HTU21D;68776;44.762;37.698;2023-04-09T02:04:39;10.33;79.82
74873;HTU21D;68776;44.762;37.698;2023-04-09T02:05:44;10.33;79.72
74873;HTU21D;68776;44.762;37.698;2023-04-09T02:07:22;10.31;79.75
74873;HTU21D;68776;44.762;37.698;2023-04-09T02:08:20;10.33;79.67
74873;HTU21D;68776;44.762;37.698;2023-04-09T02:09:23;10.31;79.71
74873;HTU21D;68776;44.762;37.698;2023-04-09T02:10:26;10.29;79.73
74873;HTU21D;68776;44.762;37.698;2023-04-09T02:11:32;10.30;79.77
74873;HTU21D;68776;44.762;37.698;2023-04-09T02:12:36;10.30;79.77
74873;HTU21D;68776;44.762;37.698;2023-04-09T02:13:39;10.30;79.75
74873;HTU21D;68776;44.762;37.698;2023-04-09T02:14:41;10.29;79.68
74873;HTU21D;68776;44.762;37.698;2023-04-09T02:15:46;10.29;79.80
74873;HTU21D;68776;44.762;37.698;2023-04-09T02:16:47;10.29;79.70
74873;HTU21D;68776;44.762;37.698;2023-04-09T02:17:48;10.29;79.66
74873;HTU21D;68776;44.762;37.698;2023-04-09T02:18:53;10.28;79.68
74873;HTU21D;68776;44.762;37.698;2023-04-09T02:19:55;10.28;79.72
74873;HTU21D;68776;44.762;37.698;2023-04-09T02:20:57;10.24;79.65
74873;HTU21D;68776;44.762;37.698;2023-04-09T02:21:58;10.25;79.66
74873;HTU21D;68776;44.762;37.698;2023-04-09T02:22:59;10.26;79.66
74873;HTU21D;68776;44.762;37.698;2023-04-09T02:24:00;10.24;79.71
74873;HTU21D;68776;44.762;37.698;2023-04-09T02:25:01;10.28;79.70
74873;HTU21D;68776;44.762;37.698;2023-04-09T02:26:02;10.29;79.78
74873;HTU21D;68776;44.762;37.698;2023-04-09T02:27:03;10.30;79.81
74873;HTU21D;68776;44.762;37.698;2023-04-09T02:28:05;10.30;79.79
74873;HTU21D;68776;44.762;37.698;2023-04-09T02:29:06;10.28;79.72
74873;HTU21D;68776;44.762;37.698;2023-04-09T02:30:07;0.00;79.74
74873;HTU21D;68776;44.762;37.698;2023-04-09T02:31:08;10.30;79.86
74873;HTU21D;68776;44.762;37.698;2023-04-09T02:32:11;10.30;79.80
74873;HTU21D;68776;44.762;37.698;2023-04-09T02:33:11;10.30;79.85
74873;HTU21D;68776;44.762;37.698;2023-04-09T02:34:12;10.31;79.89
74873;HTU21D;68776;44.762;37.698;2023-04-09T02:35:13;10.31;79.91
74873;HTU21D;68776;44.762;37.698;2023-04-09T02:36:14;10.31;79.98
74873;HTU21D;68776;44.762;37.698;2023-04-09T02:37:15;10.30;80.07
74873;HTU21D;68776;44.762;37.698;2023-04-09T02:38:18;10.30;80.09
74873;HTU21D;68776;44.762;37.698;2023-04-09T02:39:18;10.30;80.10
74873;HTU21D;68776;44.762;37.698;2023-04-09T02:40:20;10.31;80.03
74873;HTU21D;68776;44.762;37.698;2023-04-09T02:41:20;10.30;79.92
74873;HTU21D;68776;44.762;37.698;2023-04-09T02:42:21;10.31;79.79
74873;HTU21D;68776;44.762;37.698;2023-04-09T02:43:22;10.31;79.81
74873;HTU21D;68776;44.762;37.698;2023-04-09T02:44:23;10.33;79.87
74873;HTU21D;68776;44.762;37.698;2023-04-09T02:45:24;10.35;79.87
74873;HTU21D;68776;44.762;37.698;2023-04-09T02:46:25;10.36;79.82
74873;HTU21D;68776;44.762;37.698;2023-04-09T02:47:26;10.37;79.72
74873;HTU21D;68776;44.762;37.698;2023-04-09T02:48:27;10.35;79.52
74873;HTU21D;68776;44.762;37.698;2023-04-09T02:49:28;10.35;79.58
74873;HTU21D;68776;44.762;37.698;2023-04-09T02:50:29;10.34;79.43
74873;HTU21D;68776;44.762;37.698;2023-04-09T02:51:30;10.31;79.37
74873;HTU21D;68776;44.762;37.698;2023-04-09T02:52:31;10.33;79.40
74873;HTU21D;68776;44.762;37.698;2023-04-09T02:53:32;10.28;79.30
74873;HTU21D;68776;44.762;37.698;2023-04-09T02:54:33;10.26;79.25
74873;HTU21D;68776;44.762;37.698;2023-04-09T02:55:34;10.26;79.28
74873;HTU21D;68776;44.762;37.698;2023-04-09T02:56:35;10.22;79.13
74873;HTU21D;68776;44.762;37.698;2023-04-09T02:57:35;10.21;78.92
74873;HTU21D;68776;44.762;37.698;2023-04-09T02:58:37;10.20;78.77
74873;HTU21D;68776;44.762;37.698;2023-04-09T02:59:38;10.18;78.66
74873;HTU21D;68776;44.762;37.698;2023-04-09T03:00:40;10.16;78.59
74873;HTU21D;68776;44.762;37.698;2023-04-09T03:01:41;10.16;78.51
74873;HTU21D;68776;44.762;37.698;2023-04-09T03:02:42;10.15;78.41
74873;HTU21D;68776;44.762;37.698;2023-04-09T03:03:43;10.16;78.22
74873;HTU21D;68776;44.762;37.698;2023-04-09T03:04:44;10.14;78.13
74873;HTU21D;68776;44.762;37.698;2023-04-09T03:05:45;10.15;78.05
74873;HTU21D;68776;44.762;37.698;2023-04-09T03:06:46;10.13;77.95
74873;HTU21D;68776;44.762;37.698;2023-04-09T03:07:47;10.13;77.86
74873;HTU21D;68776;44.762;37.698;2023-04-09T03:08:49;10.13;77.75
74873;HTU21D;68776;44.762;37.698;2023-04-09T03:09:50;10.13;77.76
74873;HTU21D;68776;44.762;37.698;2023-04-09T03:10:51;10.15;77.66
74873;HTU21D;68776;44.762;37.698;2023-04-09T03:11:52;10.16;77.60
74873;HTU21D;68776;44.762;37.698;2023-04-09T03:12:53;10.15;77.58
74873;HTU21D;68776;44.762;37.698;2023-04-09T03:13:54;10.18;77.53
74873;HTU21D;68776;44.762;37.698;2023-04-09T03:14:55;10.15;77.58
74873;HTU21D;68776;44.762;37.698;2023-04-09T03:15:56;10.16;77.64
74873;HTU21D;68776;44.762;37.698;2023-04-09T03:16:57;10.16;77.58
74873;HTU21D;68776;44.762;37.698;2023-04-09T03:17:58;10.18;77.62
74873;HTU21D;68776;44.762;37.698;2023-04-09T03:18:59;10.18;77.56
74873;HTU21D;68776;44.762;37.698;2023-04-09T03:20:00;10.19;77.47
74873;HTU21D;68776;44.762;37.698;2023-04-09T03:21:09;10.19;77.41
74873;HTU21D;68776;44.762;37.698;2023-04-09T03:22:14;10.19;77.48
74873;HTU21D;68776;44.762;37.698;2023-04-09T03:23:15;10.21;77.42
74873;HTU21D;68776;44.762;37.698;2023-04-09T03:24:20;10.22;77.44
74873;HTU21D;68776;44.762;37.698;2023-04-09T03:25:22;10.23;77.28
74873;HTU21D;68776;44.762;37.698;2023-04-09T03:26:26;10.24;77.17
74873;HTU21D;68776;44.762;37.698;2023-04-09T03:27:27;10.24;77.18
74873;HTU21D;68776;44.762;37.698;2023-04-09T03:28:31;10.26;77.23
74873;HTU21D;68776;44.762;37.698;2023-04-09T03:29:32;10.27;77.26
74873;HTU21D;68776;44.762;37.698;2023-04-09T03:30:33;10.27;77.19
74873;HTU21D;68776;44.762;37.698;2023-04-09T03:31:37;10.27;77.09
74873;HTU21D;68776;44.762;37.698;2023-04-09T03:32:38;10.25;76.96
74873;HTU21D;68776;44.762;37.698;2023-04-09T03:33:39;10.23;76.83
74873;HTU21D;68776;44.762;37.698;2023-04-09T03:34:41;10.20;76.82
74873;HTU21D;68776;44.762;37.698;2023-04-09T03:35:42;10.18;76.83
74873;HTU21D;68776;44.762;37.698;2023-04-09T03:36:44;10.16;76.84
74873;HTU21D;68776;44.762;37.698;2023-04-09T03:37:52;10.16;77.08
74873;HTU21D;68776;44.762;37.698;2023-04-09T03:38:53;10.19;77.00
74873;HTU21D;68776;44.762;37.698;2023-04-09T03:40:16;10.21;66.26
74873;HTU21D;68776;44.762;37.698;2023-04-09T03:41:17;10.21;76.81
74873;HTU21D;68776;44.762;37.698;2023-04-09T03:42:18;10.20;76.73
74873;HTU21D;68776;44.762;37.698;2023-04-09T03:43:22;10.21;76.83
74873;HTU21D;68776;44.762;37.698;2023-04-09T03:44:25;10.22;76.98
74873;HTU21D;68776;44.762;37.698;2023-04-09T03:45:48;10.23;77.09
74873;HTU21D;68776;44.762;37.698;2023-04-09T03:46:55;10.23;77.30
74873;HTU21D;68776;44.762;37.698;2023-04-09T03:47:56;10.27;77.21
74873;HTU21D;68776;44.762;37.698;2023-04-09T03:48:58;10.28;77.11
74873;HTU21D;68776;44.762;37.698;2023-04-09T03:50:09;10.27;77.01
74873;HTU21D;68776;44.762;37.698;2023-04-09T03:51:28;10.29;77.00
74873;HTU21D;68776;44.762;37.698;2023-04-09T03:52:32;10.31;76.98
74873;HTU21D;68776;44.762;37.698;2023-04-09T03:53:39;10.33;77.08
74873;HTU21D;68776;44.762;37.698;2023-04-09T03:54:40;10.37;77.18
74873;HTU21D;68776;44.762;37.698;2023-04-09T03:55:48;10.36;76.92
74873;HTU21D;68776;44.762;37.698;2023-04-09T03:56:55;0.00;76.81
74873;HTU21D;68776;44.762;37.698;2023-04-09T03:57:58;10.38;76.73
74873;HTU21D;68776;44.762;37.698;2023-04-09T03:59:03;10.40;76.81
74873;HTU21D;68776;44.762;37.698;2023-04-09T04:00:12;10.41;76.60
74873;HTU21D;68776;44.762;37.698;2023-04-09T04:01:41;10.39;76.66
74873;HTU21D;68776;44.762;37.698;2023-04-09T04:02:43;10.41;76.86
74873;HTU21D;68776;44.762;37.698;2023-04-09T04:03:44;10.43;76.87
74873;HTU21D;68776;44.762;37.698;2023-04-09T04:05:07;10.46;77.15
74873;HTU21D;68776;44.762;37.698;2023-04-09T04:06:16;10.51;77.18
74873;HTU21D;68776;44.762;37.698;2023-04-09T04:07:25;10.56;77.03
74873;HTU21D;68776;44.762;37.698;2023-04-09T04:08:31;10.58;76.94
74873;HTU21D;68776;44.762;37.698;2023-04-09T04:09:33;10.62;76.82
74873;HTU21D;68776;44.762;37.698;2023-04-09T04:10:38;10.66;76.81
74873;HTU21D;68776;44.762;37.698;2023-04-09T04:11:40;10.69;76.70
74873;HTU21D;68776;44.762;37.698;2023-04-09T04:12:41;10.71;76.66
74873;HTU21D;68776;44.762;37.698;2023-04-09T04:13:50;10.72;76.43
74873;HTU21D;68776;44.762;37.698;2023-04-09T04:14:51;10.74;76.45
74873;HTU21D;68776;44.762;37.698;2023-04-09T04:15:59;10.77;76.16
74873;HTU21D;68776;44.762;37.698;2023-04-09T04:16:59;10.79;76.30
74873;HTU21D;68776;44.762;37.698;2023-04-09T04:18:03;10.79;76.34
74873;HTU21D;68776;44.762;37.698;2023-04-09T04:19:16;10.78;76.30
74873;HTU21D;68776;44.762;37.698;2023-04-09T04:20:21;10.78;76.18
74873;HTU21D;68776;44.762;37.698;2023-04-09T04:21:31;10.80;76.34
74873;HTU21D;68776;44.762;37.698;2023-04-09T04:22:35;10.83;76.39
74873;HTU21D;68776;44.762;37.698;2023-04-09T04:23:38;10.82;76.49
74873;HTU21D;68776;44.762;37.698;2023-04-09T04:24:55;10.82;76.41
74873;HTU21D;68776;44.762;37.698;2023-04-09T04:25:57;10.84;76.33
74873;HTU21D;68776;44.762;37.698;2023-04-09T04:27:08;10.84;76.33
74873;HTU21D;68776;44.762;37.698;2023-04-09T04:28:10;10.87;76.37
74873;HTU21D;68776;44.762;37.698;2023-04-09T04:29:14;10.87;76.42
74873;HTU21D;68776;44.762;37.698;2023-04-09T04:30:35;10.87;76.26
74873;HTU21D;68776;44.762;37.698;2023-04-09T04:31:40;10.86;76.25
74873;HTU21D;68776;44.762;37.698;2023-04-09T04:32:40;10.87;76.29
74873;HTU21D;68776;44.762;37.698;2023-04-09T04:33:44;10.87;76.41
74873;HTU21D;68776;44.762;37.698;2023-04-09T04:34:48;10.87;76.41
74873;HTU21D;68776;44.762;37.698;2023-04-09T04:36:06;10.83;76.32
74873;HTU21D;68776;44.762;37.698;2023-04-09T04:37:14;10.82;76.38
74873;HTU21D;68776;44.762;37.698;2023-04-09T04:38:15;10.83;76.56
74873;HTU21D;68776;44.762;37.698;2023-04-09T04:39:15;10.85;76.56
74873;HTU21D;68776;44.762;37.698;2023-04-09T04:40:24;10.85;76.60
74873;HTU21D;68776;44.762;37.698;2023-04-09T04:41:31;10.86;76.64
74873;HTU21D;68776;44.762;37.698;2023-04-09T04:42:49;10.90;76.66
74873;HTU21D;68776;44.762;37.698;2023-04-09T04:43:50;10.90;76.63
74873;HTU21D;68776;44.762;37.698;2023-04-09T04:44:57;10.94;76.52
74873;HTU21D;68776;44.762;37.698;2023-04-09T04:46:18;10.94;76.47
74873;HTU21D;68776;44.762;37.698;2023-04-09T04:47:21;10.95;76.50
74873;HTU21D;68776;44.762;37.698;2023-04-09T04:48:22;10.97;76.57
74873;HTU21D;68776;44.762;37.698;2023-04-09T04:49:23;10.97;76.53
74873;HTU21D;68776;44.762;37.698;2023-04-09T04:50:25;10.98;76.63
74873;HTU21D;68776;44.762;37.698;2023-04-09T04:51:41;10.98;76.70
74873;HTU21D;68776;44.762;37.698;2023-04-09T04:52:45;10.99;76.60
74873;HTU21D;68776;44.762;37.698;2023-04-09T04:53:46;10.98;76.46
74873;HTU21D;68776;44.762;37.698;2023-04-09T04:54:48;10.97;76.40
74873;HTU21D;68776;44.762;37.698;2023-04-09T04:55:54;10.95;76.41
74873;HTU21D;68776;44.762;37.698;2023-04-09T04:56:58;10.92;76.37
74873;HTU21D;68776;44.762;37.698;2023-04-09T04:58:11;10.87;76.37
74873;HTU21D;68776;44.762;37.698;2023-04-09T04:59:18;10.88;76.47
74873;HTU21D;68776;44.762;37.698;2023-04-09T05:00:37;10.89;76.56
74873;HTU21D;68776;44.762;37.698;2023-04-09T05:01:38;10.90;76.42
74873;HTU21D;68776;44.762;37.698;2023-04-09T05:02:42;10.90;76.34
74873;HTU21D;68776;44.762;37.698;2023-04-09T05:03:56;10.90;76.22
74873;HTU21D;68776;44.762;37.698;2023-04-09T05:05:01;10.90;76.18
74873;HTU21D;68776;44.762;37.698;2023-04-09T05:06:09;10.88;76.12
74873;HTU21D;68776;44.762;37.698;2023-04-09T05:07:16;10.87;76.15
74873;HTU21D;68776;44.762;37.698;2023-04-09T05:08:26;10.89;76.17
74873;HTU21D;68776;44.762;37.698;2023-04-09T05:09:29;10.90;76.01
74873;HTU21D;68776;44.762;37.698;2023-04-09T05:10:40;10.95;75.90
74873;HTU21D;68776;44.762;37.698;2023-04-09T05:11:41;10.98;76.05
74873;HTU21D;68776;44.762;37.698;2023-04-09T05:12:48;11.03;76.06
74873;HTU21D;68776;44.762;37.698;2023-04-09T05:13:57;11.07;75.93
74873;HTU21D;68776;44.762;37.698;2023-04-09T05:14:58;11.09;75.85
74873;HTU21D;68776;44.762;37.698;2023-04-09T05:15:59;11.11;75.89
74873;HTU21D;68776;44.762;37.698;2023-04-09T05:17:00;11.14;75.84
74873;HTU21D;68776;44.762;37.698;2023-04-09T05:18:12;11.16;75.76
74873;HTU21D;68776;44.762;37.698;2023-04-09T05:19:13;11.18;75.62
74873;HTU21D;68776;44.762;37.698;2023-04-09T05:20:17;11.22;75.34
74873;HTU21D;68776;44.762;37.698;2023-04-09T05:21:25;11.24;75.17
74873;HTU21D;68776;44.762;37.698;2023-04-09T05:22:29;11.28;75.16
74873;HTU21D;68776;44.762;37.698;2023-04-09T05:23:30;11.33;75.11
74873;HTU21D;68776;44.762;37.698;2023-04-09T05:24:31;11.39;75.00
74873;HTU21D;68776;44.762;37.698;2023-04-09T05:25:32;11.43;74.91
74873;HTU21D;68776;44.762;37.698;2023-04-09T05:26:34;11.48;74.78
74873;HTU21D;68776;44.762;37.698;2023-04-09T05:27:36;11.53;74.49
74873;HTU21D;68776;44.762;37.698;2023-04-09T05:28:38;11.63;74.49
74873;HTU21D;68776;44.762;37.698;2023-04-09T05:29:58;11.82;74.44
74873;HTU21D;68776;44.762;37.698;2023-04-09T05:30:59;11.97;74.07
74873;HTU21D;68776;44.762;37.698;2023-04-09T05:32:00;12.08;73.86
74873;HTU21D;68776;44.762;37.698;2023-04-09T05:33:05;12.17;73.38
74873;HTU21D;68776;44.762;37.698;2023-04-09T05:34:07;12.25;73.11
74873;HTU21D;68776;44.762;37.698;2023-04-09T05:35:12;12.31;73.02
74873;HTU21D;68776;44.762;37.698;2023-04-09T05:36:18;12.40;72.59
74873;HTU21D;68776;44.762;37.698;2023-04-09T05:37:19;12.45;72.29
74873;HTU21D;68776;44.762;37.698;2023-04-09T05:38:24;12.44;72.05
74873;HTU21D;68776;44.762;37.698;2023-04-09T05:39:31;12.43;71.74
74873;HTU21D;68776;44.762;37.698;2023-04-09T05:40:33;12.43;71.35
74873;HTU21D;68776;44.762;37.698;2023-04-09T05:41:36;12.38;71.21
74873;HTU21D;68776;44.762;37.698;2023-04-09T05:43:04;12.38;71.34
74873;HTU21D;68776;44.762;37.698;2023-04-09T05:44:17;12.42;71.35
74873;HTU21D;68776;44.762;37.698;2023-04-09T05:45:18;12.41;71.25
74873;HTU21D;68776;44.762;37.698;2023-04-09T05:46:24;12.42;71.33
74873;HTU21D;68776;44.762;37.698;2023-04-09T05:47:25;12.43;71.38
74873;HTU21D;68776;44.762;37.698;2023-04-09T05:48:35;12.44;71.19
74873;HTU21D;68776;44.762;37.698;2023-04-09T05:49:36;12.43;71.03
74873;HTU21D;68776;44.762;37.698;2023-04-09T05:50:52;12.41;71.01
74873;HTU21D;68776;44.762;37.698;2023-04-09T05:51:53;12.42;71.14
74873;HTU21D;68776;44.762;37.698;2023-04-09T05:53:01;12.44;70.69
74873;HTU21D;68776;44.762;37.698;2023-04-09T05:54:10;12.47;70.84
74873;HTU21D;68776;44.762;37.698;2023-04-09T05:55:12;12.53;70.55
74873;HTU21D;68776;44.762;37.698;2023-04-09T05:56:20;12.63;70.39
74873;HTU21D;68776;44.762;37.698;2023-04-09T05:57:27;12.65;70.12
74873;HTU21D;68776;44.762;37.698;2023-04-09T05:58:33;12.64;69.94
74873;HTU21D;68776;44.762;37.698;2023-04-09T05:59:34;12.75;69.90
74873;HTU21D;68776;44.762;37.698;2023-04-09T06:00:35;12.81;69.78
74873;HTU21D;68776;44.762;37.698;2023-04-09T06:01:36;12.86;69.84
74873;HTU21D;68776;44.762;37.698;2023-04-09T06:02:37;12.86;69.74
74873;HTU21D;68776;44.762;37.698;2023-04-09T06:03:38;12.85;69.38
74873;HTU21D;68776;44.762;37.698;2023-04-09T06:04:39;12.85;69.10
74873;HTU21D;68776;44.762;37.698;2023-04-09T06:05:40;12.81;69.13
74873;HTU21D;68776;44.762;37.698;2023-04-09T06:06:41;12.80;69.07
74873;HTU21D;68776;44.762;37.698;2023-04-09T06:07:42;12.77;69.21
74873;HTU21D;68776;44.762;37.698;2023-04-09T06:08:43;12.75;69.13
74873;HTU21D;68776;44.762;37.698;2023-04-09T06:09:44;12.75;69.15
74873;HTU21D;68776;44.762;37.698;2023-04-09T06:10:46;12.78;69.24
74873;HTU21D;68776;44.762;37.698;2023-04-09T06:11:47;12.82;69.29
74873;HTU21D;68776;44.762;37.698;2023-04-09T06:12:48;12.87;68.91
74873;HTU21D;68776;44.762;37.698;2023-04-09T06:13:49;12.89;68.59
74873;HTU21D;68776;44.762;37.698;2023-04-09T06:14:51;12.90;68.49
74873;HTU21D;68776;44.762;37.698;2023-04-09T06:15:52;12.93;68.46
74873;HTU21D;68776;44.762;37.698;2023-04-09T06:16:53;12.99;68.23
74873;HTU21D;68776;44.762;37.698;2023-04-09T06:17:54;12.96;68.15
74873;HTU21D;68776;44.762;37.698;2023-04-09T06:18:55;12.99;68.20
74873;HTU21D;68776;44.762;37.698;2023-04-09T06:19:56;13.00;67.95
74873;HTU21D;68776;44.762;37.698;2023-04-09T06:21:07;13.01;67.65
74873;HTU21D;68776;44.762;37.698;2023-04-09T06:22:11;13.01;67.50
74873;HTU21D;68776;44.762;37.698;2023-04-09T06:23:12;13.02;67.55
74873;HTU21D;68776;44.762;37.698;2023-04-09T06:24:13;13.05;67.52
74873;HTU21D;68776;44.762;37.698;2023-04-09T06:25:13;13.06;67.71
74873;HTU21D;68776;44.762;37.698;2023-04-09T06:26:14;13.06;67.41
74873;HTU21D;68776;44.762;37.698;2023-04-09T06:27:16;13.07;67.36
74873;HTU21D;68776;44.762;37.698;2023-04-09T06:28:18;13.08;67.30
74873;HTU21D;68776;44.762;37.698;2023-04-09T06:29:19;13.11;67.51
74873;HTU21D;68776;44.762;37.698;2023-04-09T06:30:20;13.19;67.55
74873;HTU21D;68776;44.762;37.698;2023-04-09T06:31:22;13.22;67.20
74873;HTU21D;68776;44.762;37.698;2023-04-09T06:32:23;13.26;66.97
74873;HTU21D;68776;44.762;37.698;2023-04-09T06:33:24;13.30;66.91
74873;HTU21D;68776;44.762;37.698;2023-04-09T06:34:25;13.36;67.19
74873;HTU21D;68776;44.762;37.698;2023-04-09T06:35:26;13.41;67.14
74873;HTU21D;68776;44.762;37.698;2023-04-09T06:36:27;13.51;67.04
74873;HTU21D;68776;44.762;37.698;2023-04-09T06:37:28;13.54;66.60
74873;HTU21D;68776;44.762;37.698;2023-04-09T06:38:29;13.67;66.36
74873;HTU21D;68776;44.762;37.698;2023-04-09T06:39:30;13.89;66.17